createdAt,value
2019-05-07T00:03:12.371Z,6.43
2019-05-07T00:08:19.453Z,6.10
2019-05-07T00:13:27.407Z,6.63
2019-05-07T00:18:36.215Z,6.53
2019-05-07T00:23:44.170Z,5.97
2019-05-07T00:28:52.678Z,5.67
2019-05-07T00:34:02.847Z,6.67
2019-05-07T00:39:27.625Z,6.80
2019-05-07T00:44:37.186Z,5.83
2019-05-07T00:49:45.307Z,6.40
2019-05-07T00:54:53.427Z,5.60
2019-05-07T01:00:02.150Z,6.17
2019-05-07T01:05:12.316Z,6.23
2019-05-07T01:10:22.139Z,7.20
2019-05-07T01:15:34.251Z,7.87
2019-05-07T01:20:42.347Z,6.50
2019-05-07T01:25:52.628Z,7.23
2019-05-07T01:31:02.200Z,6.37
2019-05-07T01:36:17.163Z,7.23
2019-05-07T01:41:24.323Z,7.13
2019-05-07T01:46:32.445Z,5.77
2019-05-07T01:51:42.303Z,7.87
2019-05-07T01:56:52.140Z,7.43
2019-05-07T02:02:02.866Z,7.73
2019-05-07T02:07:22.583Z,7.20
2019-05-07T02:12:32.021Z,7.13
2019-05-07T02:17:39.331Z,7.27
2019-05-07T02:22:47.188Z,6.90
2019-05-07T02:27:54.003Z,7.50
2019-05-07T02:33:03.739Z,7.07
2019-05-07T02:38:14.018Z,7.33
2019-05-07T02:43:22.755Z,7.57
2019-05-07T02:48:45.020Z,7.97
2019-05-07T02:53:59.760Z,7.07
2019-05-07T02:59:08.305Z,7.30
2019-05-07T03:04:20.493Z,6.30
2019-05-07T03:09:28.677Z,8.03
2019-05-07T03:14:35.818Z,7.80
2019-05-07T03:19:46.310Z,7.13
2019-05-07T03:24:58.633Z,7.20
2019-05-07T03:30:28.530Z,7.20
2019-05-07T03:35:47.354Z,7.50
2019-05-07T03:40:55.753Z,7.20
2019-05-07T03:46:04.467Z,7.47
2019-05-07T03:51:13.178Z,7.53
2019-05-07T03:56:23.717Z,7.97
2019-05-07T04:01:33.416Z,7.83
2019-05-07T04:06:43.430Z,8.20
2019-05-07T04:11:53.386Z,8.40
2019-05-07T04:17:21.842Z,7.90
2019-05-07T04:22:28.625Z,8.47
2019-05-07T04:27:53.801Z,8.50
2019-05-07T04:33:03.736Z,8.87
2019-05-07T04:38:13.645Z,8.87
2019-05-07T04:43:23.268Z,8.60
2019-05-07T04:48:33.757Z,8.33
2019-05-07T04:53:54.110Z,8.30
2019-05-07T04:59:03.584Z,8.97
2019-05-07T05:04:25.797Z,8.93
2019-05-07T05:09:23.487Z,9.43
2019-05-07T05:14:33.823Z,10.40
2019-05-07T05:19:43.869Z,10.83
2019-05-07T05:25:05.105Z,10.50
2019-05-07T05:30:24.323Z,10.30
2019-05-07T05:35:32.547Z,11.07
2019-05-07T05:40:39.682Z,11.20
2019-05-07T05:45:49.286Z,11.00
2019-05-07T05:51:13.367Z,12.10
2019-05-07T05:56:24.971Z,11.40
2019-05-07T06:01:35.283Z,11.23
2019-05-07T06:06:46.843Z,12.37
2019-05-07T06:12:12.608Z,11.87
2019-05-07T06:17:26.747Z,12.47
2019-05-07T06:22:44.492Z,11.87
2019-05-07T06:27:53.325Z,13.10
2019-05-07T06:33:02.868Z,12.77
2019-05-07T06:38:12.461Z,14.00
2019-05-07T06:43:23.307Z,14.40
2019-05-07T06:48:40.122Z,14.47
2019-05-07T06:53:42.299Z,15.50
2019-05-07T06:58:52.819Z,15.80
2019-05-07T07:04:14.766Z,16.80
2019-05-07T07:09:34.961Z,17.27
2019-05-07T07:14:44.065Z,17.30
2019-05-07T07:19:52.314Z,16.17
2019-05-07T07:25:02.543Z,17.80
2019-05-07T07:30:13.103Z,19.13
2019-05-07T07:35:22.610Z,19.93
2019-05-07T07:40:38.442Z,18.77
2019-05-07T07:45:46.676Z,18.70
2019-05-07T07:50:53.872Z,21.30
2019-05-07T07:56:22.970Z,17.90
2019-05-07T08:01:43.390Z,18.83
2019-05-07T08:07:04.110Z,21.00
2019-05-07T08:12:12.854Z,21.90
2019-05-07T08:17:22.357Z,22.60
2019-05-07T08:22:32.957Z,22.53
2019-05-07T08:27:41.977Z,22.17
2019-05-07T08:32:53.291Z,22.83
2019-05-07T08:38:02.299Z,20.27
2019-05-07T08:43:12.621Z,23.67
2019-05-07T08:48:25.048Z,22.20
2019-05-07T08:53:34.257Z,22.60
2019-05-07T08:58:54.051Z,21.93
2019-05-07T09:04:02.480Z,22.67
2019-05-07T09:09:14.748Z,24.80
2019-05-07T09:14:25.783Z,25.43
2019-05-07T09:19:46.909Z,26.27
2019-05-07T09:24:42.798Z,26.20
2019-05-07T09:29:52.436Z,27.37
2019-05-07T09:35:12.501Z,26.33
2019-05-07T09:40:21.640Z,29.47
2019-05-07T09:45:29.650Z,28.60
2019-05-07T09:50:37.854Z,26.70
2019-05-07T09:55:45.970Z,26.30
2019-05-07T10:00:54.214Z,28.27
2019-05-07T10:06:02.195Z,25.93
2019-05-07T10:11:12.226Z,25.43
2019-05-07T10:16:29.002Z,25.30
2019-05-07T10:21:42.444Z,21.53
2019-05-07T10:26:53.125Z,20.00
2019-05-07T10:32:02.514Z,22.20
2019-05-07T10:37:12.135Z,22.87
2019-05-07T10:42:20.168Z,17.63
2019-05-07T10:47:38.808Z,19.20
2019-05-07T10:52:47.507Z,16.37
2019-05-07T10:57:55.920Z,18.20
2019-05-07T11:03:04.528Z,16.53
2019-05-07T11:08:11.835Z,17.13
2019-05-07T11:13:21.845Z,16.60
2019-05-07T11:18:38.002Z,14.70
2019-05-07T11:23:49.096Z,15.07
2019-05-07T11:29:02.512Z,16.00
2019-05-07T11:34:11.968Z,16.37
2019-05-07T11:39:22.662Z,17.53
2019-05-07T11:44:32.744Z,18.23
2019-05-07T11:50:00.225Z,16.77
2019-05-07T11:55:12.015Z,15.93
2019-05-07T12:00:36.127Z,15.97
2019-05-07T12:05:46.094Z,15.63
2019-05-07T12:10:54.357Z,15.87
2019-05-07T12:16:03.774Z,16.30
2019-05-07T12:21:20.642Z,15.37
2019-05-07T12:26:23.307Z,15.63
2019-05-07T12:31:35.524Z,15.10
2019-05-07T12:36:43.680Z,13.80
2019-05-07T12:41:53.461Z,14.50
2019-05-07T12:47:04.502Z,13.83
2019-05-07T12:52:14.133Z,15.07
2019-05-07T12:57:23.398Z,13.90
2019-05-07T13:02:42.070Z,14.17
2019-05-07T13:07:50.207Z,14.40
2019-05-07T13:13:02.062Z,14.63
2019-05-07T13:18:12.724Z,13.27
2019-05-07T13:23:22.506Z,13.83
2019-05-07T13:28:30.657Z,14.53
2019-05-07T13:33:42.107Z,13.30
2019-05-07T13:38:56.427Z,12.20
2019-05-07T13:44:12.371Z,12.67
2019-05-07T13:49:22.088Z,14.00
2019-05-07T13:54:32.388Z,13.60
2019-05-07T13:59:42.476Z,12.47
2019-05-07T14:04:52.610Z,16.63
2019-05-07T14:10:02.140Z,12.57
2019-05-07T14:15:09.531Z,12.47
2019-05-07T14:20:19.283Z,12.37
2019-05-07T14:25:26.421Z,12.83
2019-05-07T14:30:33.532Z,12.17
2019-05-07T14:35:42.690Z,12.33
2019-05-07T14:40:51.990Z,11.73
2019-05-07T14:45:59.341Z,11.97
2019-05-07T14:51:07.218Z,14.83
2019-05-07T14:56:17.073Z,11.47
2019-05-07T15:01:28.312Z,11.03
2019-05-07T15:06:36.448Z,11.70
2019-05-07T15:11:44.207Z,11.63
2019-05-07T15:16:54.012Z,11.40
2019-05-07T15:22:22.812Z,12.87
2019-05-07T15:27:32.350Z,11.80
2019-05-07T15:32:42.763Z,10.93
2019-05-07T15:37:51.806Z,11.80
2019-05-07T15:42:59.290Z,11.47
2019-05-07T15:48:07.385Z,11.20
2019-05-07T15:53:17.585Z,12.03
2019-05-07T15:58:26.013Z,12.00
2019-05-07T16:03:38.845Z,12.93
2019-05-07T16:08:49.174Z,12.33
2019-05-07T16:14:06.863Z,13.63
2019-05-07T16:19:18.988Z,12.43
2019-05-07T16:24:27.837Z,11.37
2019-05-07T16:29:36.939Z,11.53
2019-05-07T16:34:47.139Z,10.83
2019-05-07T16:39:54.437Z,11.40
2019-05-07T16:45:02.872Z,11.73
2019-05-07T16:50:13.032Z,11.60
2019-05-07T16:55:25.378Z,12.90
2019-05-07T17:00:49.894Z,11.93
2019-05-07T17:06:01.772Z,11.90
2019-05-07T17:11:08.771Z,11.37
2019-05-07T17:16:17.811Z,12.43
2019-05-07T17:21:25.122Z,11.77
2019-05-07T17:26:32.522Z,12.23
2019-05-07T17:31:44.328Z,11.70
2019-05-07T17:36:54.808Z,11.67
2019-05-07T17:42:05.793Z,12.13
2019-05-07T17:47:15.798Z,11.33
2019-05-07T17:52:23.690Z,12.27
2019-05-07T17:57:33.327Z,8.47
2019-05-07T18:02:54.561Z,9.57
2019-05-07T18:08:03.507Z,9.80
2019-05-07T18:13:12.461Z,9.63
2019-05-07T18:18:22.771Z,9.67
2019-05-07T18:23:32.192Z,9.83
2019-05-07T18:28:41.707Z,9.97
2019-05-07T18:33:53.041Z,9.97
2019-05-07T18:39:01.728Z,9.70
2019-05-07T18:44:15.317Z,9.43
2019-05-07T18:49:23.042Z,10.60
2019-05-07T18:54:49.162Z,9.87
2019-05-07T18:59:58.118Z,10.50
2019-05-07T19:05:08.297Z,10.53
2019-05-07T19:10:17.990Z,10.63
2019-05-07T19:15:27.946Z,11.33
2019-05-07T19:20:42.475Z,10.40
2019-05-07T19:25:52.539Z,10.57
2019-05-07T19:31:05.679Z,10.27
2019-05-07T19:36:16.188Z,11.10
2019-05-07T19:41:25.716Z,10.97
2019-05-07T19:46:36.497Z,9.97
2019-05-07T19:51:47.365Z,10.80
2019-05-07T19:56:59.091Z,10.40
2019-05-07T20:02:12.260Z,11.07
2019-05-07T20:07:21.363Z,10.97
2019-05-07T20:12:29.146Z,10.57
2019-05-07T20:17:41.935Z,11.70
2019-05-07T20:22:52.524Z,10.47
2019-05-07T20:28:02.203Z,10.57
2019-05-07T20:33:14.591Z,10.67
2019-05-07T20:38:24.780Z,11.07
2019-05-07T20:43:33.316Z,10.53
2019-05-07T20:48:42.469Z,10.57
2019-05-07T20:53:52.362Z,10.97
2019-05-07T20:59:04.898Z,10.30
2019-05-07T21:04:13.320Z,9.87
2019-05-07T21:09:22.171Z,10.20
2019-05-07T21:14:29.585Z,10.37
2019-05-07T21:19:37.876Z,10.23
2019-05-07T21:24:46.853Z,10.40
2019-05-07T21:29:53.932Z,9.80
2019-05-07T21:35:02.092Z,10.30
2019-05-07T21:40:10.283Z,11.23
2019-05-07T21:45:19.452Z,10.60
2019-05-07T21:50:26.663Z,11.03
2019-05-07T21:55:39.482Z,11.57
2019-05-07T22:00:54.107Z,10.90
2019-05-07T22:06:05.824Z,11.07
2019-05-07T22:11:15.122Z,10.80
2019-05-07T22:16:23.244Z,11.97
2019-05-07T22:21:34.202Z,11.13
2019-05-07T22:26:42.350Z,10.87
2019-05-07T22:31:57.856Z,11.60
2019-05-07T22:37:12.605Z,11.23
2019-05-07T22:42:24.331Z,11.27
2019-05-07T23:08:43.643Z,11.13
2019-05-07T23:13:54.873Z,11.87
2019-05-07T23:19:03.989Z,12.00
2019-05-07T23:24:12.890Z,11.83
2019-05-07T23:29:22.534Z,11.67
2019-05-07T23:34:32.596Z,12.47
2019-05-07T23:39:43.242Z,11.83
2019-05-07T23:44:52.460Z,11.90
2019-05-07T23:50:02.132Z,12.93
2019-05-07T23:55:12.208Z,12.57
